sensor_id;sensor_type;location;lat;lon;timestamp;P1;durP1;ratioP1;P2;durP2;ratioP2
15096;SDS011;7649;52.084;7.478;2023-11-18T00:00:44;21.47;;;17.30;;
15096;SDS011;7649;52.084;7.478;2023-11-18T00:03:13;20.77;;;17.07;;
15096;SDS011;7649;52.084;7.478;2023-11-18T00:05:41;25.00;;;16.60;;
15096;SDS011;7649;52.084;7.478;2023-11-18T00:08:10;19.67;;;16.57;;
15096;SDS011;7649;52.084;7.478;2023-11-18T00:10:41;23.20;;;17.23;;
15096;SDS011;7649;52.084;7.478;2023-11-18T00:13:09;20.07;;;15.47;;
15096;SDS011;7649;52.084;7.478;2023-11-18T00:15:38;26.70;;;17.67;;
15096;SDS011;7649;52.084;7.478;2023-11-18T00:18:06;22.60;;;16.20;;
15096;SDS011;7649;52.084;7.478;2023-11-18T00:20:35;23.17;;;17.07;;
15096;SDS011;7649;52.084;7.478;2023-11-18T00:23:04;21.63;;;16.77;;
15096;SDS011;7649;52.084;7.478;2023-11-18T00:25:34;25.30;;;17.63;;
15096;SDS011;7649;52.084;7.478;2023-11-18T00:28:07;22.87;;;17.33;;
15096;SDS011;7649;52.084;7.478;2023-11-18T00:30:35;23.70;;;16.30;;
15096;SDS011;7649;52.084;7.478;2023-11-18T00:33:04;18.13;;;15.10;;
15096;SDS011;7649;52.084;7.478;2023-11-18T00:35:32;21.60;;;15.00;;
15096;SDS011;7649;52.084;7.478;2023-11-18T00:38:02;19.30;;;14.77;;
15096;SDS011;7649;52.084;7.478;2023-11-18T00:40:31;20.70;;;15.63;;
15096;SDS011;7649;52.084;7.478;2023-11-18T00:42:59;21.70;;;16.00;;
15096;SDS011;7649;52.084;7.478;2023-11-18T00:45:31;23.23;;;16.10;;
15096;SDS011;7649;52.084;7.478;2023-11-18T00:47:59;24.97;;;17.27;;
15096;SDS011;7649;52.084;7.478;2023-11-18T00:50:28;22.50;;;16.67;;
15096;SDS011;7649;52.084;7.478;2023-11-18T00:52:56;25.10;;;17.53;;
15096;SDS011;7649;52.084;7.478;2023-11-18T00:55:25;23.07;;;15.47;;
15096;SDS011;7649;52.084;7.478;2023-11-18T00:57:54;35.87;;;16.00;;
15096;SDS011;7649;52.084;7.478;2023-11-18T01:00:22;37.87;;;23.63;;
15096;SDS011;7649;52.084;7.478;2023-11-18T01:02:55;43.40;;;27.83;;
15096;SDS011;7649;52.084;7.478;2023-11-18T01:05:29;27.33;;;17.43;;
15096;SDS011;7649;52.084;7.478;2023-11-18T01:07:58;25.20;;;16.47;;
15096;SDS011;7649;52.084;7.478;2023-11-18T01:10:26;26.83;;;17.50;;
15096;SDS011;7649;52.084;7.478;2023-11-18T01:12:55;17.20;;;13.80;;
15096;SDS011;7649;52.084;7.478;2023-11-18T01:15:24;19.77;;;13.67;;
15096;SDS011;7649;52.084;7.478;2023-11-18T01:17:54;20.43;;;13.97;;
15096;SDS011;7649;52.084;7.478;2023-11-18T01:20:25;20.80;;;14.83;;
15096;SDS011;7649;52.084;7.478;2023-11-18T01:22:53;24.97;;;14.83;;
15096;SDS011;7649;52.084;7.478;2023-11-18T01:25:23;38.70;;;16.03;;
15096;SDS011;7649;52.084;7.478;2023-11-18T01:27:51;37.17;;;16.67;;
15096;SDS011;7649;52.084;7.478;2023-11-18T01:30:21;21.93;;;14.63;;
15096;SDS011;7649;52.084;7.478;2023-11-18T01:32:50;69.57;;;17.90;;
15096;SDS011;7649;52.084;7.478;2023-11-18T01:35:21;25.83;;;15.90;;
15096;SDS011;7649;52.084;7.478;2023-11-18T01:37:53;59.27;;;21.53;;
15096;SDS011;7649;52.084;7.478;2023-11-18T01:40:23;29.63;;;17.17;;
15096;SDS011;7649;52.084;7.478;2023-11-18T01:42:53;116.30;;;23.30;;
15096;SDS011;7649;52.084;7.478;2023-11-18T01:45:21;26.53;;;16.13;;
15096;SDS011;7649;52.084;7.478;2023-11-18T01:47:53;45.13;;;21.17;;
15096;SDS011;7649;52.084;7.478;2023-11-18T01:50:23;28.93;;;16.30;;
15096;SDS011;7649;52.084;7.478;2023-11-18T01:52:51;89.13;;;18.77;;
15096;SDS011;7649;52.084;7.478;2023-11-18T01:55:20;77.77;;;17.43;;
15096;SDS011;7649;52.084;7.478;2023-11-18T01:57:49;40.00;;;14.47;;
15096;SDS011;7649;52.084;7.478;2023-11-18T02:00:17;24.37;;;13.13;;
15096;SDS011;7649;52.084;7.478;2023-11-18T02:02:46;36.63;;;14.07;;
15096;SDS011;7649;52.084;7.478;2023-11-18T02:05:17;50.63;;;14.57;;
15096;SDS011;7649;52.084;7.478;2023-11-18T02:07:47;47.53;;;14.70;;
15096;SDS011;7649;52.084;7.478;2023-11-18T02:10:16;28.13;;;15.23;;
15096;SDS011;7649;52.084;7.478;2023-11-18T02:12:48;72.97;;;15.83;;
15096;SDS011;7649;52.084;7.478;2023-11-18T02:15:21;54.63;;;16.57;;
15096;SDS011;7649;52.084;7.478;2023-11-18T02:17:50;127.47;;;18.63;;
15096;SDS011;7649;52.084;7.478;2023-11-18T02:20:21;48.40;;;18.47;;
15096;SDS011;7649;52.084;7.478;2023-11-18T02:22:52;52.27;;;16.40;;
15096;SDS011;7649;52.084;7.478;2023-11-18T02:25:21;46.03;;;17.23;;
15096;SDS011;7649;52.084;7.478;2023-11-18T02:27:55;113.20;;;20.43;;
15096;SDS011;7649;52.084;7.478;2023-11-18T02:30:24;157.63;;;21.93;;
15096;SDS011;7649;52.084;7.478;2023-11-18T02:32:55;54.53;;;19.23;;
15096;SDS011;7649;52.084;7.478;2023-11-18T02:35:29;44.43;;;18.73;;
15096;SDS011;7649;52.084;7.478;2023-11-18T02:37:58;96.77;;;21.60;;
15096;SDS011;7649;52.084;7.478;2023-11-18T02:40:31;181.40;;;23.97;;
15096;SDS011;7649;52.084;7.478;2023-11-18T02:43:03;56.93;;;17.20;;
15096;SDS011;7649;52.084;7.478;2023-11-18T02:45:32;66.90;;;19.20;;
15096;SDS011;7649;52.084;7.478;2023-11-18T02:48:02;93.83;;;20.77;;
15096;SDS011;7649;52.084;7.478;2023-11-18T02:50:33;71.53;;;18.87;;
15096;SDS011;7649;52.084;7.478;2023-11-18T02:53:02;51.73;;;17.00;;
15096;SDS011;7649;52.084;7.478;2023-11-18T02:55:31;108.67;;;20.07;;
15096;SDS011;7649;52.084;7.478;2023-11-18T02:58:00;70.47;;;18.50;;
15096;SDS011;7649;52.084;7.478;2023-11-18T03:00:33;58.77;;;19.97;;
15096;SDS011;7649;52.084;7.478;2023-11-18T03:03:04;77.70;;;19.93;;
15096;SDS011;7649;52.084;7.478;2023-11-18T03:05:33;40.37;;;17.83;;
15096;SDS011;7649;52.084;7.478;2023-11-18T03:08:02;47.47;;;18.40;;
15096;SDS011;7649;52.084;7.478;2023-11-18T03:10:32;37.63;;;17.40;;
15096;SDS011;7649;52.084;7.478;2023-11-18T03:13:02;33.67;;;17.87;;
15096;SDS011;7649;52.084;7.478;2023-11-18T03:15:30;55.37;;;18.10;;
15096;SDS011;7649;52.084;7.478;2023-11-18T03:18:02;32.77;;;16.53;;
15096;SDS011;7649;52.084;7.478;2023-11-18T03:20:33;59.90;;;18.47;;
15096;SDS011;7649;52.084;7.478;2023-11-18T03:23:02;43.93;;;17.43;;
15096;SDS011;7649;52.084;7.478;2023-11-18T03:25:34;53.03;;;17.90;;
15096;SDS011;7649;52.084;7.478;2023-11-18T03:28:04;53.97;;;19.20;;
15096;SDS011;7649;52.084;7.478;2023-11-18T03:30:34;38.63;;;17.43;;
15096;SDS011;7649;52.084;7.478;2023-11-18T03:33:05;66.27;;;19.50;;
15096;SDS011;7649;52.084;7.478;2023-11-18T03:35:37;68.80;;;18.83;;
15096;SDS011;7649;52.084;7.478;2023-11-18T03:38:06;59.37;;;18.50;;
15096;SDS011;7649;52.084;7.478;2023-11-18T03:40:34;51.53;;;18.70;;
15096;SDS011;7649;52.084;7.478;2023-11-18T03:43:03;71.60;;;20.67;;
15096;SDS011;7649;52.084;7.478;2023-11-18T03:45:33;52.77;;;18.93;;
15096;SDS011;7649;52.084;7.478;2023-11-18T03:48:01;48.47;;;19.53;;
15096;SDS011;7649;52.084;7.478;2023-11-18T03:50:31;67.97;;;20.73;;
15096;SDS011;7649;52.084;7.478;2023-11-18T03:53:00;58.13;;;20.67;;
15096;SDS011;7649;52.084;7.478;2023-11-18T03:55:31;45.50;;;19.60;;
15096;SDS011;7649;52.084;7.478;2023-11-18T03:58:00;67.93;;;22.10;;
15096;SDS011;7649;52.084;7.478;2023-11-18T04:00:29;58.10;;;20.50;;
15096;SDS011;7649;52.084;7.478;2023-11-18T04:02:57;85.93;;;22.33;;
15096;SDS011;7649;52.084;7.478;2023-11-18T04:05:26;43.87;;;20.47;;
15096;SDS011;7649;52.084;7.478;2023-11-18T04:07:56;122.17;;;26.40;;
15096;SDS011;7649;52.084;7.478;2023-11-18T04:10:25;46.90;;;21.67;;
15096;SDS011;7649;52.084;7.478;2023-11-18T04:12:53;55.33;;;22.20;;
15096;SDS011;7649;52.084;7.478;2023-11-18T04:15:22;48.33;;;20.67;;
15096;SDS011;7649;52.084;7.478;2023-11-18T04:17:50;122.37;;;22.53;;
15096;SDS011;7649;52.084;7.478;2023-11-18T04:20:21;178.50;;;28.80;;
15096;SDS011;7649;52.084;7.478;2023-11-18T04:22:50;75.43;;;22.00;;
15096;SDS011;7649;52.084;7.478;2023-11-18T04:25:19;178.27;;;27.23;;
15096;SDS011;7649;52.084;7.478;2023-11-18T04:27:48;129.37;;;26.07;;
15096;SDS011;7649;52.084;7.478;2023-11-18T04:30:16;54.13;;;20.90;;
15096;SDS011;7649;52.084;7.478;2023-11-18T04:32:45;140.70;;;27.00;;
15096;SDS011;7649;52.084;7.478;2023-11-18T04:35:13;164.07;;;27.90;;
15096;SDS011;7649;52.084;7.478;2023-11-18T04:37:43;111.50;;;23.90;;
15096;SDS011;7649;52.084;7.478;2023-11-18T04:40:12;52.40;;;20.33;;
15096;SDS011;7649;52.084;7.478;2023-11-18T04:42:43;49.60;;;18.97;;
15096;SDS011;7649;52.084;7.478;2023-11-18T04:45:11;37.30;;;19.07;;
15096;SDS011;7649;52.084;7.478;2023-11-18T04:47:41;52.70;;;19.87;;
15096;SDS011;7649;52.084;7.478;2023-11-18T04:50:11;57.40;;;19.20;;
15096;SDS011;7649;52.084;7.478;2023-11-18T04:52:40;56.20;;;18.90;;
15096;SDS011;7649;52.084;7.478;2023-11-18T04:55:08;26.53;;;18.87;;
15096;SDS011;7649;52.084;7.478;2023-11-18T04:57:39;47.43;;;18.97;;
15096;SDS011;7649;52.084;7.478;2023-11-18T05:00:12;28.60;;;18.63;;
15096;SDS011;7649;52.084;7.478;2023-11-18T05:02:43;35.93;;;18.73;;
15096;SDS011;7649;52.084;7.478;2023-11-18T05:05:14;55.13;;;20.30;;
15096;SDS011;7649;52.084;7.478;2023-11-18T05:07:43;28.80;;;18.37;;
15096;SDS011;7649;52.084;7.478;2023-11-18T05:10:11;34.60;;;19.17;;
15096;SDS011;7649;52.084;7.478;2023-11-18T05:12:40;38.93;;;20.23;;
15096;SDS011;7649;52.084;7.478;2023-11-18T05:15:11;46.80;;;20.73;;
15096;SDS011;7649;52.084;7.478;2023-11-18T05:17:39;31.10;;;18.67;;
15096;SDS011;7649;52.084;7.478;2023-11-18T05:20:08;27.33;;;18.53;;
15096;SDS011;7649;52.084;7.478;2023-11-18T05:22:37;35.93;;;18.90;;
15096;SDS011;7649;52.084;7.478;2023-11-18T05:25:06;28.27;;;19.40;;
15096;SDS011;7649;52.084;7.478;2023-11-18T05:27:36;27.97;;;18.50;;
15096;SDS011;7649;52.084;7.478;2023-11-18T05:30:06;29.80;;;20.20;;
15096;SDS011;7649;52.084;7.478;2023-11-18T05:32:37;25.57;;;19.33;;
15096;SDS011;7649;52.084;7.478;2023-11-18T05:35:06;27.70;;;18.47;;
15096;SDS011;7649;52.084;7.478;2023-11-18T05:37:38;26.13;;;17.90;;
15096;SDS011;7649;52.084;7.478;2023-11-18T05:40:08;29.43;;;19.67;;
15096;SDS011;7649;52.084;7.478;2023-11-18T05:42:38;27.03;;;17.70;;
15096;SDS011;7649;52.084;7.478;2023-11-18T05:45:08;26.93;;;18.07;;
15096;SDS011;7649;52.084;7.478;2023-11-18T05:47:45;26.43;;;17.83;;
15096;SDS011;7649;52.084;7.478;2023-11-18T05:50:14;21.67;;;17.00;;
15096;SDS011;7649;52.084;7.478;2023-11-18T05:52:42;23.33;;;17.20;;
15096;SDS011;7649;52.084;7.478;2023-11-18T05:55:11;25.10;;;18.23;;
15096;SDS011;7649;52.084;7.478;2023-11-18T05:57:39;27.80;;;19.37;;
15096;SDS011;7649;52.084;7.478;2023-11-18T06:00:12;26.17;;;16.53;;
15096;SDS011;7649;52.084;7.478;2023-11-18T06:02:51;21.77;;;16.87;;
15096;SDS011;7649;52.084;7.478;2023-11-18T06:05:20;23.17;;;16.37;;
15096;SDS011;7649;52.084;7.478;2023-11-18T06:07:52;21.50;;;16.10;;
15096;SDS011;7649;52.084;7.478;2023-11-18T06:10:21;23.73;;;16.27;;
15096;SDS011;7649;52.084;7.478;2023-11-18T06:12:49;23.90;;;16.40;;
15096;SDS011;7649;52.084;7.478;2023-11-18T06:15:17;23.03;;;16.30;;
15096;SDS011;7649;52.084;7.478;2023-11-18T06:17:48;21.50;;;16.20;;
15096;SDS011;7649;52.084;7.478;2023-11-18T06:20:18;22.47;;;15.63;;
15096;SDS011;7649;52.084;7.478;2023-11-18T06:22:49;21.13;;;15.20;;
15096;SDS011;7649;52.084;7.478;2023-11-18T06:25:18;22.80;;;16.20;;
15096;SDS011;7649;52.084;7.478;2023-11-18T06:27:46;24.67;;;16.67;;
15096;SDS011;7649;52.084;7.478;2023-11-18T06:30:16;23.90;;;16.67;;
15096;SDS011;7649;52.084;7.478;2023-11-18T06:32:47;24.40;;;16.60;;
15096;SDS011;7649;52.084;7.478;2023-11-18T06:35:15;20.07;;;15.40;;
15096;SDS011;7649;52.084;7.478;2023-11-18T06:37:47;28.00;;;19.03;;
15096;SDS011;7649;52.084;7.478;2023-11-18T06:40:16;20.13;;;16.23;;
15096;SDS011;7649;52.084;7.478;2023-11-18T06:42:45;20.90;;;15.53;;
15096;SDS011;7649;52.084;7.478;2023-11-18T06:45:14;26.83;;;17.10;;
15096;SDS011;7649;52.084;7.478;2023-11-18T06:47:43;23.00;;;17.00;;
15096;SDS011;7649;52.084;7.478;2023-11-18T06:50:12;20.80;;;15.17;;
15096;SDS011;7649;52.084;7.478;2023-11-18T06:52:42;23.47;;;15.23;;
15096;SDS011;7649;52.084;7.478;2023-11-18T06:55:15;23.00;;;15.10;;
15096;SDS011;7649;52.084;7.478;2023-11-18T06:57:44;23.07;;;16.63;;
15096;SDS011;7649;52.084;7.478;2023-11-18T07:00:12;20.97;;;16.00;;
15096;SDS011;7649;52.084;7.478;2023-11-18T07:02:41;26.67;;;17.53;;
15096;SDS011;7649;52.084;7.478;2023-11-18T07:05:10;21.90;;;17.50;;
15096;SDS011;7649;52.084;7.478;2023-11-18T07:07:41;22.40;;;15.97;;
15096;SDS011;7649;52.084;7.478;2023-11-18T07:10:12;19.77;;;15.03;;
15096;SDS011;7649;52.084;7.478;2023-11-18T07:12:42;21.33;;;15.30;;
15096;SDS011;7649;52.084;7.478;2023-11-18T07:15:10;19.77;;;14.57;;
15096;SDS011;7649;52.084;7.478;2023-11-18T07:17:39;20.80;;;14.97;;
15096;SDS011;7649;52.084;7.478;2023-11-18T07:20:07;22.37;;;17.03;;
15096;SDS011;7649;52.084;7.478;2023-11-18T07:22:39;22.10;;;15.60;;
15096;SDS011;7649;52.084;7.478;2023-11-18T07:25:08;19.97;;;15.00;;
15096;SDS011;7649;52.084;7.478;2023-11-18T07:27:36;23.77;;;15.53;;
15096;SDS011;7649;52.084;7.478;2023-11-18T07:30:07;18.53;;;14.03;;
15096;SDS011;7649;52.084;7.478;2023-11-18T07:32:37;19.47;;;14.23;;
15096;SDS011;7649;52.084;7.478;2023-11-18T07:35:07;28.73;;;15.93;;
15096;SDS011;7649;52.084;7.478;2023-11-18T07:37:36;18.67;;;14.73;;
15096;SDS011;7649;52.084;7.478;2023-11-18T07:40:05;19.30;;;14.70;;
15096;SDS011;7649;52.084;7.478;2023-11-18T07:42:38;19.17;;;15.80;;
15096;SDS011;7649;52.084;7.478;2023-11-18T07:45:08;21.70;;;14.93;;
15096;SDS011;7649;52.084;7.478;2023-11-18T07:47:44;18.00;;;14.30;;
15096;SDS011;7649;52.084;7.478;2023-11-18T07:50:15;18.43;;;14.73;;
15096;SDS011;7649;52.084;7.478;2023-11-18T07:52:43;22.13;;;14.13;;
15096;SDS011;7649;52.084;7.478;2023-11-18T07:55:15;19.80;;;15.67;;
15096;SDS011;7649;52.084;7.478;2023-11-18T07:57:44;17.80;;;14.17;;
15096;SDS011;7649;52.084;7.478;2023-11-18T08:00:14;18.10;;;14.20;;
15096;SDS011;7649;52.084;7.478;2023-11-18T08:02:44;19.93;;;14.73;;
15096;SDS011;7649;52.084;7.478;2023-11-18T08:05:13;24.23;;;15.63;;
15096;SDS011;7649;52.084;7.478;2023-11-18T08:07:42;17.43;;;14.30;;
15096;SDS011;7649;52.084;7.478;2023-11-18T08:10:12;18.37;;;14.53;;
15096;SDS011;7649;52.084;7.478;2023-11-18T08:12:46;16.07;;;13.60;;
15096;SDS011;7649;52.084;7.478;2023-11-18T08:15:15;19.87;;;14.03;;
15096;SDS011;7649;52.084;7.478;2023-11-18T08:17:45;18.43;;;14.03;;
15096;SDS011;7649;52.084;7.478;2023-11-18T08:20:13;17.67;;;14.33;;
15096;SDS011;7649;52.084;7.478;2023-11-18T08:22:42;18.50;;;14.27;;
15096;SDS011;7649;52.084;7.478;2023-11-18T08:25:12;16.50;;;12.93;;
15096;SDS011;7649;52.084;7.478;2023-11-18T08:27:46;17.63;;;12.73;;
15096;SDS011;7649;52.084;7.478;2023-11-18T08:30:16;18.93;;;13.50;;
15096;SDS011;7649;52.084;7.478;2023-11-18T08:32:47;18.63;;;13.40;;
15096;SDS011;7649;52.084;7.478;2023-11-18T08:35:15;17.97;;;13.67;;
15096;SDS011;7649;52.084;7.478;2023-11-18T08:37:44;17.90;;;14.67;;
15096;SDS011;7649;52.084;7.478;2023-11-18T08:40:14;19.00;;;14.43;;
15096;SDS011;7649;52.084;7.478;2023-11-18T08:42:43;18.77;;;14.23;;
15096;SDS011;7649;52.084;7.478;2023-11-18T08:45:18;16.43;;;13.57;;
15096;SDS011;7649;52.084;7.478;2023-11-18T08:47:48;21.77;;;15.47;;
15096;SDS011;7649;52.084;7.478;2023-11-18T08:50:19;19.37;;;15.13;;
15096;SDS011;7649;52.084;7.478;2023-11-18T08:52:50;19.93;;;13.53;;
15096;SDS011;7649;52.084;7.478;2023-11-18T08:55:26;21.07;;;14.33;;
15096;SDS011;7649;52.084;7.478;2023-11-18T08:58:06;15.53;;;13.73;;
15096;SDS011;7649;52.084;7.478;2023-11-18T09:00:48;17.23;;;13.27;;
15096;SDS011;7649;52.084;7.478;2023-11-18T09:03:22;18.50;;;13.97;;
15096;SDS011;7649;52.084;7.478;2023-11-18T09:05:55;20.63;;;14.00;;
15096;SDS011;7649;52.084;7.478;2023-11-18T09:08:26;17.73;;;13.60;;
15096;SDS011;7649;52.084;7.478;2023-11-18T09:10:56;15.77;;;13.07;;
15096;SDS011;7649;52.084;7.478;2023-11-18T09:13:25;17.07;;;14.00;;
15096;SDS011;7649;52.084;7.478;2023-11-18T09:15:56;20.10;;;14.00;;
15096;SDS011;7649;52.084;7.478;2023-11-18T09:18:27;21.13;;;14.57;;
15096;SDS011;7649;52.084;7.478;2023-11-18T09:20:56;19.07;;;15.60;;
15096;SDS011;7649;52.084;7.478;2023-11-18T09:23:29;18.53;;;15.43;;
15096;SDS011;7649;52.084;7.478;2023-11-18T09:25:58;20.73;;;15.17;;
15096;SDS011;7649;52.084;7.478;2023-11-18T09:28:29;20.90;;;16.87;;
15096;SDS011;7649;52.084;7.478;2023-11-18T09:30:58;20.50;;;16.33;;
15096;SDS011;7649;52.084;7.478;2023-11-18T09:33:29;20.37;;;15.60;;
15096;SDS011;7649;52.084;7.478;2023-11-18T09:35:59;20.23;;;15.97;;
15096;SDS011;7649;52.084;7.478;2023-11-18T09:38:29;19.93;;;15.50;;
15096;SDS011;7649;52.084;7.478;2023-11-18T09:40:57;18.67;;;15.00;;
15096;SDS011;7649;52.084;7.478;2023-11-18T09:43:29;18.80;;;15.33;;
15096;SDS011;7649;52.084;7.478;2023-11-18T09:46:05;18.90;;;15.77;;
15096;SDS011;7649;52.084;7.478;2023-11-18T09:48:41;21.17;;;16.17;;
15096;SDS011;7649;52.084;7.478;2023-11-18T09:51:14;22.10;;;15.80;;
15096;SDS011;7649;52.084;7.478;2023-11-18T09:53:44;19.80;;;15.37;;
15096;SDS011;7649;52.084;7.478;2023-11-18T09:56:16;20.77;;;15.83;;
15096;SDS011;7649;52.084;7.478;2023-11-18T09:58:57;19.50;;;15.33;;
15096;SDS011;7649;52.084;7.478;2023-11-18T10:01:35;20.53;;;16.93;;
15096;SDS011;7649;52.084;7.478;2023-11-18T10:04:09;20.50;;;15.43;;
15096;SDS011;7649;52.084;7.478;2023-11-18T10:06:39;19.77;;;16.20;;
15096;SDS011;7649;52.084;7.478;2023-11-18T10:09:11;21.07;;;16.00;;
15096;SDS011;7649;52.084;7.478;2023-11-18T10:11:44;20.53;;;15.30;;
15096;SDS011;7649;52.084;7.478;2023-11-18T10:14:15;18.97;;;15.17;;
15096;SDS011;7649;52.084;7.478;2023-11-18T10:16:45;21.90;;;15.70;;
15096;SDS011;7649;52.084;7.478;2023-11-18T10:19:14;22.97;;;17.07;;
15096;SDS011;7649;52.084;7.478;2023-11-18T10:21:45;20.70;;;16.07;;
15096;SDS011;7649;52.084;7.478;2023-11-18T10:24:16;20.73;;;16.03;;
15096;SDS011;7649;52.084;7.478;2023-11-18T10:26:54;21.60;;;16.77;;
15096;SDS011;7649;52.084;7.478;2023-11-18T10:29:24;22.07;;;18.17;;
15096;SDS011;7649;52.084;7.478;2023-11-18T10:32:06;23.70;;;18.47;;
15096;SDS011;7649;52.084;7.478;2023-11-18T10:34:36;23.30;;;17.03;;
15096;SDS011;7649;52.084;7.478;2023-11-18T10:37:08;19.63;;;15.60;;
15096;SDS011;7649;52.084;7.478;2023-11-18T10:39:38;19.97;;;15.80;;
15096;SDS011;7649;52.084;7.478;2023-11-18T10:42:07;21.67;;;15.57;;
15096;SDS011;7649;52.084;7.478;2023-11-18T10:44:35;20.60;;;16.03;;
15096;SDS011;7649;52.084;7.478;2023-11-18T10:47:04;19.57;;;16.13;;
15096;SDS011;7649;52.084;7.478;2023-11-18T10:49:40;19.50;;;15.67;;
15096;SDS011;7649;52.084;7.478;2023-11-18T10:52:10;22.33;;;16.73;;
15096;SDS011;7649;52.084;7.478;2023-11-18T10:54:42;19.00;;;16.33;;
15096;SDS011;7649;52.084;7.478;2023-11-18T10:57:20;22.40;;;16.53;;
15096;SDS011;7649;52.084;7.478;2023-11-18T10:59:59;22.17;;;16.37;;
15096;SDS011;7649;52.084;7.478;2023-11-18T11:02:31;18.57;;;15.10;;
15096;SDS011;7649;52.084;7.478;2023-11-18T11:05:07;19.57;;;15.90;;
15096;SDS011;7649;52.084;7.478;2023-11-18T11:07:47;18.87;;;15.20;;
15096;SDS011;7649;52.084;7.478;2023-11-18T11:10:19;21.07;;;16.73;;
15096;SDS011;7649;52.084;7.478;2023-11-18T11:12:55;21.73;;;16.30;;
15096;SDS011;7649;52.084;7.478;2023-11-18T11:15:26;20.37;;;15.37;;
15096;SDS011;7649;52.084;7.478;2023-11-18T11:18:14;18.80;;;15.90;;
15096;SDS011;7649;52.084;7.478;2023-11-18T11:20:56;18.83;;;15.80;;
15096;SDS011;7649;52.084;7.478;2023-11-18T11:23:30;18.67;;;15.70;;
15096;SDS011;7649;52.084;7.478;2023-11-18T11:26:13;16.63;;;13.97;;
15096;SDS011;7649;52.084;7.478;2023-11-18T11:28:48;21.67;;;15.73;;
15096;SDS011;7649;52.084;7.478;2023-11-18T11:31:21;18.97;;;15.97;;
15096;SDS011;7649;52.084;7.478;2023-11-18T11:33:57;20.00;;;15.33;;
15096;SDS011;7649;52.084;7.478;2023-11-18T11:36:34;18.80;;;14.27;;
15096;SDS011;7649;52.084;7.478;2023-11-18T11:39:05;17.80;;;14.93;;
15096;SDS011;7649;52.084;7.478;2023-11-18T11:41:36;15.60;;;13.60;;
15096;SDS011;7649;52.084;7.478;2023-11-18T11:44:07;19.93;;;13.70;;
15096;SDS011;7649;52.084;7.478;2023-11-18T11:46:36;16.13;;;14.43;;
15096;SDS011;7649;52.084;7.478;2023-11-18T11:49:08;15.40;;;13.67;;
15096;SDS011;7649;52.084;7.478;2023-11-18T11:51:46;19.03;;;15.23;;
15096;SDS011;7649;52.084;7.478;2023-11-18T11:54:17;18.30;;;14.47;;
15096;SDS011;7649;52.084;7.478;2023-11-18T11:56:47;17.70;;;13.77;;
15096;SDS011;7649;52.084;7.478;2023-11-18T11:59:34;16.07;;;13.87;;
15096;SDS011;7649;52.084;7.478;2023-11-18T12:02:04;14.10;;;12.60;;
15096;SDS011;7649;52.084;7.478;2023-11-18T12:04:43;17.23;;;14.87;;
15096;SDS011;7649;52.084;7.478;2023-11-18T12:07:14;17.43;;;14.10;;
15096;SDS011;7649;52.084;7.478;2023-11-18T12:09:46;18.33;;;14.23;;
15096;SDS011;7649;52.084;7.478;2023-11-18T12:12:21;18.70;;;14.67;;
15096;SDS011;7649;52.084;7.478;2023-11-18T12:14:53;18.43;;;12.90;;
15096;SDS011;7649;52.084;7.478;2023-11-18T12:17:25;17.57;;;15.13;;
15096;SDS011;7649;52.084;7.478;2023-11-18T12:19:59;16.10;;;13.20;;
15096;SDS011;7649;52.084;7.478;2023-11-18T12:28:11;18.37;;;13.50;;
15096;SDS011;7649;52.084;7.478;2023-11-18T12:30:42;15.00;;;12.57;;
15096;SDS011;7649;52.084;7.478;2023-11-18T12:33:51;15.70;;;13.23;;
15096;SDS011;7649;52.084;7.478;2023-11-18T12:39:19;16.63;;;13.97;;
15096;SDS011;7649;52.084;7.478;2023-11-18T12:41:55;18.37;;;14.57;;
15096;SDS011;7649;52.084;7.478;2023-11-18T12:44:28;15.43;;;12.67;;
15096;SDS011;7649;52.084;7.478;2023-11-18T12:46:59;19.00;;;13.57;;
15096;SDS011;7649;52.084;7.478;2023-11-18T12:49:37;19.47;;;15.30;;
15096;SDS011;7649;52.084;7.478;2023-11-18T12:52:07;19.43;;;16.67;;
15096;SDS011;7649;52.084;7.478;2023-11-18T12:54:36;16.13;;;13.10;;
15096;SDS011;7649;52.084;7.478;2023-11-18T12:57:10;17.37;;;13.03;;
15096;SDS011;7649;52.084;7.478;2023-11-18T12:59:42;17.57;;;13.33;;
15096;SDS011;7649;52.084;7.478;2023-11-18T13:02:17;17.30;;;13.93;;
15096;SDS011;7649;52.084;7.478;2023-11-18T13:04:46;16.90;;;15.17;;
15096;SDS011;7649;52.084;7.478;2023-11-18T13:07:16;19.53;;;15.70;;
15096;SDS011;7649;52.084;7.478;2023-11-18T13:09:46;18.30;;;14.63;;
15096;SDS011;7649;52.084;7.478;2023-11-18T13:12:16;16.50;;;14.80;;
15096;SDS011;7649;52.084;7.478;2023-11-18T13:14:51;15.03;;;13.43;;
15096;SDS011;7649;52.084;7.478;2023-11-18T13:17:19;15.20;;;12.20;;
15096;SDS011;7649;52.084;7.478;2023-11-18T13:19:48;15.23;;;12.53;;
15096;SDS011;7649;52.084;7.478;2023-11-18T13:22:20;12.37;;;11.07;;
15096;SDS011;7649;52.084;7.478;2023-11-18T13:25:04;17.40;;;13.27;;
15096;SDS011;7649;52.084;7.478;2023-11-18T13:27:33;17.63;;;13.63;;
15096;SDS011;7649;52.084;7.478;2023-11-18T13:30:06;17.97;;;14.20;;
15096;SDS011;7649;52.084;7.478;2023-11-18T13:32:40;15.87;;;13.10;;
15096;SDS011;7649;52.084;7.478;2023-11-18T13:35:09;17.60;;;12.93;;
15096;SDS011;7649;52.084;7.478;2023-11-18T13:37:40;18.70;;;13.07;;
15096;SDS011;7649;52.084;7.478;2023-11-18T13:40:11;12.97;;;11.53;;
15096;SDS011;7649;52.084;7.478;2023-11-18T13:42:40;14.77;;;11.27;;
15096;SDS011;7649;52.084;7.478;2023-11-18T13:45:11;15.10;;;11.87;;
15096;SDS011;7649;52.084;7.478;2023-11-18T13:47:59;16.07;;;12.37;;
15096;SDS011;7649;52.084;7.478;2023-11-18T13:50:41;13.80;;;11.60;;
15096;SDS011;7649;52.084;7.478;2023-11-18T13:53:12;14.63;;;12.00;;
15096;SDS011;7649;52.084;7.478;2023-11-18T13:55:42;18.33;;;14.27;;
15096;SDS011;7649;52.084;7.478;2023-11-18T13:58:10;23.13;;;18.83;;
15096;SDS011;7649;52.084;7.478;2023-11-18T14:00:41;33.83;;;24.50;;
15096;SDS011;7649;52.084;7.478;2023-11-18T14:03:15;31.97;;;23.60;;
15096;SDS011;7649;52.084;7.478;2023-11-18T14:05:45;22.47;;;17.00;;
15096;SDS011;7649;52.084;7.478;2023-11-18T14:08:17;18.30;;;14.27;;
15096;SDS011;7649;52.084;7.478;2023-11-18T14:10:54;23.53;;;15.80;;
15096;SDS011;7649;52.084;7.478;2023-11-18T14:13:29;21.53;;;15.53;;
15096;SDS011;7649;52.084;7.478;2023-11-18T14:16:01;14.37;;;12.77;;
15096;SDS011;7649;52.084;7.478;2023-11-18T14:18:30;14.70;;;13.07;;
15096;SDS011;7649;52.084;7.478;2023-11-18T14:20:58;20.90;;;16.40;;
15096;SDS011;7649;52.084;7.478;2023-11-18T14:23:34;16.57;;;13.80;;
15096;SDS011;7649;52.084;7.478;2023-11-18T14:26:04;22.73;;;16.00;;
15096;SDS011;7649;52.084;7.478;2023-11-18T14:28:35;21.17;;;14.07;;
15096;SDS011;7649;52.084;7.478;2023-11-18T14:31:07;20.67;;;16.10;;
15096;SDS011;7649;52.084;7.478;2023-11-18T14:33:37;21.93;;;15.83;;
15096;SDS011;7649;52.084;7.478;2023-11-18T14:36:08;16.57;;;13.47;;
15096;SDS011;7649;52.084;7.478;2023-11-18T14:38:38;16.73;;;13.00;;
15096;SDS011;7649;52.084;7.478;2023-11-18T14:41:06;13.73;;;11.47;;
15096;SDS011;7649;52.084;7.478;2023-11-18T14:43:35;13.60;;;11.27;;
15096;SDS011;7649;52.084;7.478;2023-11-18T14:46:04;12.40;;;10.83;;
15096;SDS011;7649;52.084;7.478;2023-11-18T14:48:38;12.37;;;10.50;;
15096;SDS011;7649;52.084;7.478;2023-11-18T14:51:07;14.33;;;9.87;;
15096;SDS011;7649;52.084;7.478;2023-11-18T14:53:36;11.43;;;9.63;;
15096;SDS011;7649;52.084;7.478;2023-11-18T14:56:07;14.73;;;9.83;;
15096;SDS011;7649;52.084;7.478;2023-11-18T14:58:41;14.87;;;10.40;;
15096;SDS011;7649;52.084;7.478;2023-11-18T15:01:10;11.00;;;9.50;;
15096;SDS011;7649;52.084;7.478;2023-11-18T15:03:42;12.50;;;9.07;;